This is the latest recevied weather packets stored in our database for station/object EA5HRE-13. If no packets are shown the sender has not sent any weather packets the latest 10 day(s).
| Time | Temp. | Humidity | Pressure | Rain* | Wind** | Luminosity | Snow |
|---|---|---|---|---|---|---|---|
| 1787989191 | 22.22° C | 64% | 1018.8 hPa | 0 mm | - | - | - |
| 1787988291 | 21.11° C | 68% | 1018.7 hPa | 0 mm | - | - | - |
| 1787987391 | 20.56° C | 72% | 1018.5 hPa | 0 mm | - | - | - |
| 1787986490 | 19.44° C | 75% | 1018.4 hPa | 0 mm | - | - | - |
| 1787985589 | 19.44° C | 77% | 1018.3 hPa | 0 mm | - | - | - |
| 1787984689 | 18.89° C | 79% | 1018.2 hPa | 0 mm | - | - | - |
| 1787983788 | 18.89° C | 81% | 1018.1 hPa | 0 mm | - | - | - |
| 1787982890 | 18.89° C | 82% | 1018 hPa | 0 mm | - | - | - |
| 1787981987 | 18.89° C | 85% | 1017.9 hPa | 0 mm | - | - | - |
| 1787981087 | 19.44° C | 86% | 1017.8 hPa | 0 mm | - | - | - |
| 1787980186 | 19.44° C | 87% | 1017.7 hPa | 0 mm | - | - | - |
| 1787979286 | 19.44° C | 87% | 1017.6 hPa | 0 mm | - | - | - |
| 1787978385 | 19.44° C | 86% | 1017.6 hPa | 0 mm | - | - | - |
| 1787977484 | 19.44° C | 86% | 1017.5 hPa | 0 mm | - | - | - |
| 1787976584 | 19.44° C | 85% | 1017.5 hPa | 0 mm | - | - | - |
| 1787975683 | 20° C | 85% | 1017.5 hPa | 0 mm | - | - | - |
| 1787974783 | 20.56° C | 84% | 1017.8 hPa | 0 mm | - | - | - |
| 1787973882 | 20.56° C | 84% | 1017.9 hPa | 0 mm | - | - | - |
| 1787972982 | 20.56° C | 84% | 1017.9 hPa | 0 mm | - | - | - |
| 1787972081 | 20.56° C | 84% | 1017.9 hPa | 0 mm | - | - | - |
| 1787971181 | 20.56° C | 84% | 1017.8 hPa | 0 mm | - | - | - |
| 1787970281 | 21.11° C | 84% | 1017.8 hPa | 0 mm | - | - | - |
| 1787969380 | 21.11° C | 84% | 1017.8 hPa | 0 mm | - | - | - |
| 1787968479 | 21.11° C | 84% | 1017.9 hPa | 0 mm | - | - | - |
| 1787967579 | 21.11° C | 84% | 1018.1 hPa | 0 mm | - | - | - |
* Rain latest hour (hover to see other rain measurements)
** Current wind speed in m/s (hover to see current wind gust speed)